Time;durP1;ratioP1;P1;durP2;ratioP2;P2;SDS_P1;SDS_P2;PMS_P1;PMS_P2;Temp;Humidity;BMP_temperature;BMP_pressure;BME280_temperature;BME280_humidity;BME280_pressure;Samples;Min_cycle;Max_cycle;Signal;HPM_P1;HPM_P2
2022/09/29 00:01:01;;;;;;;;;;;6.70;99.90;;;;;;5068755;28;20079;-67
2022/09/29 00:03:27;;;;;;;1.23;0.60;;;6.60;99.90;;;;;;5059929;28;19967;-67
2022/09/29 00:05:53;;;;;;;;;;;6.60;99.90;;;;;;5060184;28;20049;-66
2022/09/29 00:08:21;;;;;;;0.70;0.70;;;6.50;99.90;;;;;;5060290;28;19928;-67
2022/09/29 00:10:48;;;;;;;1.45;1.27;;;6.50;99.90;;;;;;5059998;28;20044;-66
2022/09/29 00:13:14;;;;;;;1.55;1.00;;;6.40;99.90;;;;;;5058917;28;20530;-66
2022/09/29 00:15:40;;;;;;;0.85;0.80;;;6.30;99.90;;;;;;5060409;28;20070;-68
2022/09/29 00:18:07;;;;;;;;;;;6.30;99.90;;;;;;5051642;28;20695;-66
2022/09/29 00:20:33;;;;;;;7.20;0.77;;;6.20;99.90;;;;;;5046527;28;19924;-66
2022/09/29 00:22:59;;;;;;;1.17;0.70;;;6.30;99.90;;;;;;5047532;28;20425;-67
2022/09/29 00:25:24;;;;;;;;;;;6.30;99.90;;;;;;5045743;28;20075;-67
2022/09/29 00:27:50;;;;;;;1.42;0.70;;;6.30;99.90;;;;;;5047316;28;20423;-66
2022/09/29 00:30:16;;;;;;;;;;;6.30;99.90;;;;;;5045212;28;20041;-66
2022/09/29 00:32:41;;;;;;;1.65;1.05;;;6.30;99.90;;;;;;5047979;28;19928;-66
2022/09/29 00:35:09;;;;;;;;;;;6.20;99.90;;;;;;5046367;28;20114;-66
2022/09/29 00:37:35;;;;;;;2.38;1.40;;;6.10;99.90;;;;;;5046777;28;19948;-66
2022/09/29 00:40:01;;;;;;;3.55;1.40;;;6.10;99.90;;;;;;5045836;28;20100;-66
2022/09/29 00:42:27;;;;;;;1.98;1.45;;;6.10;99.90;;;;;;5055059;28;20703;-67
2022/09/29 00:45:14;;;;;;;4.55;1.90;;;6.10;99.90;;;;;;5055059;28;20076;-66
2022/09/29 00:47:42;;;;;;;3.17;1.85;;;6.10;99.90;;;;;;5053205;28;20054;-68
2022/09/29 00:50:41;;;;;;;2.15;1.30;;;6.10;99.90;;;;;;5047040;28;20043;-66
2022/09/29 00:53:11;;;;;;;2.95;1.48;;;6.10;99.90;;;;;;5051080;28;20044;-69
2022/09/29 00:55:47;;;;;;;2.47;1.73;;;6.10;99.90;;;;;;5046242;28;20052;-67
2022/09/29 00:58:28;;;;;;;2.97;1.77;;;6.10;99.90;;;;;;5052186;28;20037;-66
2022/09/29 01:00:54;;;;;;;6.55;2.92;;;6.10;99.90;;;;;;5044314;28;20043;-66
2022/09/29 01:03:21;;;;;;;;;;;6.10;99.90;;;;;;5046654;28;20044;-66
2022/09/29 01:05:50;;;;;;;4.80;2.20;;;6.00;99.90;;;;;;5045403;28;19924;-66
2022/09/29 01:08:47;;;;;;;9.23;2.80;;;6.10;99.90;;;;;;5038708;28;20839;-67
2022/09/29 01:11:14;;;;;;;3.95;2.85;;;6.10;99.90;;;;;;5048877;28;20032;-67
2022/09/29 01:13:40;;;;;;;5.75;3.13;;;6.10;99.90;;;;;;5052422;28;20106;-69
2022/09/29 01:16:06;;;;;;;4.47;3.25;;;6.10;99.90;;;;;;5045049;28;20045;-67
2022/09/29 01:18:32;;;;;;;6.25;3.22;;;6.10;99.90;;;;;;5047880;28;20048;-66
2022/09/29 01:21:04;;;;;;;4.28;3.47;;;6.10;99.90;;;;;;5046308;28;20090;-68
2022/09/29 01:23:35;;;;;;;5.50;3.92;;;6.10;99.90;;;;;;5046142;28;20032;-67
2022/09/29 01:26:38;;;;;;;5.72;3.92;;;6.10;99.90;;;;;;5043964;28;20080;-67
2022/09/29 01:29:07;;;;;;;9.38;4.00;;;6.10;99.90;;;;;;5046169;28;20727;-66
2022/09/29 01:31:51;;;;;;;6.60;3.80;;;6.10;99.90;;;;;;5043059;28;20037;-66
2022/09/29 01:34:28;;;;;;;9.45;4.70;;;6.10;99.90;;;;;;5044897;28;20401;-66
2022/09/29 01:37:08;;;;;;;7.18;4.43;;;6.10;99.90;;;;;;5041126;28;20063;-66
2022/09/29 01:39:38;;;;;;;6.15;4.30;;;6.10;99.90;;;;;;5047105;28;20485;-70
2022/09/29 01:42:14;;;;;;;8.55;4.25;;;6.10;99.90;;;;;;5047125;28;20526;-66
2022/09/29 01:44:46;;;;;;;6.38;3.97;;;6.10;99.90;;;;;;5050369;28;20029;-66
2022/09/29 01:47:38;;;;;;;6.10;4.07;;;6.10;99.90;;;;;;5045197;28;20103;-66
2022/09/29 01:50:11;;;;;;;9.23;5.28;;;6.00;99.90;;;;;;5047739;28;20044;-65
2022/09/29 01:52:43;;;;;;;8.57;4.90;;;6.00;99.90;;;;;;5045193;28;20033;-67
2022/09/29 01:55:12;;;;;;;8.25;5.00;;;6.00;99.90;;;;;;5042415;28;20093;-66
2022/09/29 01:58:00;;;;;;;9.45;5.18;;;6.00;99.90;;;;;;5045481;28;20507;-67
2022/09/29 02:00:30;;;;;;;8.57;5.28;;;6.00;99.90;;;;;;5042708;28;20649;-66
2022/09/29 02:03:04;;;;;;;5.97;4.35;;;6.00;99.90;;;;;;5043362;28;20045;-66
2022/09/29 02:05:44;;;;;;;7.55;4.75;;;6.00;99.90;;;;;;5045388;28;20045;-66
2022/09/29 02:08:17;;;;;;;9.13;5.18;;;6.00;99.90;;;;;;5045179;28;20056;-67
2022/09/29 02:10:49;;;;;;;6.30;4.38;;;5.90;99.90;;;;;;5044359;28;20045;-67
2022/09/29 02:13:17;;;;;;;12.20;4.93;;;6.00;99.90;;;;;;5042035;28;20076;-66
2022/09/29 02:15:47;;;;;;;7.47;4.93;;;6.00;99.90;;;;;;5044802;28;20098;-66
2022/09/29 02:18:25;;;;;;;7.28;4.75;;;6.00;99.90;;;;;;5044436;28;20040;-67
2022/09/29 02:20:50;;;;;;;8.85;5.47;;;5.90;99.90;;;;;;5045271;28;20132;-67
2022/09/29 02:23:17;;;;;;;;;;;5.90;99.90;;;;;;5045477;28;20117;-67
2022/09/29 02:25:45;;;;;;;10.00;5.30;;;5.90;99.90;;;;;;5043741;28;19967;-69
2022/09/29 02:28:12;;;;;;;7.63;4.78;;;5.90;99.90;;;;;;5044062;28;20112;-66
2022/09/29 02:30:38;;;;;;;7.90;4.68;;;5.90;99.90;;;;;;5045266;28;20111;-66
2022/09/29 02:33:04;;;;;;;8.55;4.32;;;5.90;99.90;;;;;;5044633;28;20183;-66
2022/09/29 02:35:48;;;;;;;6.10;4.55;;;5.90;99.90;;;;;;5044270;28;20041;-67
2022/09/29 02:38:40;;;;;;;9.18;5.07;;;5.90;99.90;;;;;;5044745;28;20055;-66
2022/09/29 02:41:15;;;;;;;8.07;4.35;;;5.90;99.90;;;;;;5043771;28;20098;-66
2022/09/29 02:44:06;;;;;;;8.70;4.88;;;5.80;99.90;;;;;;5046244;28;20079;-67
2022/09/29 02:46:34;;;;;;;7.57;3.88;;;5.90;99.90;;;;;;5041982;28;20060;-66
2022/09/29 02:49:03;;;;;;;6.78;4.38;;;5.90;99.90;;;;;;5043924;28;20032;-69
2022/09/29 02:51:37;;;;;;;6.13;4.25;;;5.90;99.90;;;;;;5046396;28;20040;-66
2022/09/29 02:54:36;;;;;;;6.85;4.20;;;6.00;99.90;;;;;;5042107;28;20048;-66
2022/09/29 02:57:16;;;;;;;9.77;4.38;;;6.00;99.90;;;;;;5042675;28;20141;-66
2022/09/29 03:00:08;;;;;;;8.85;4.50;;;6.00;99.90;;;;;;5045879;28;20041;-66
2022/09/29 03:02:34;;;;;;;7.07;4.55;;;6.00;99.90;;;;;;5041438;28;20049;-66
2022/09/29 03:05:02;;;;;;;5.78;3.88;;;6.00;99.90;;;;;;5042645;28;20040;-66
2022/09/29 03:07:28;;;;;;;5.47;4.10;;;6.00;99.90;;;;;;5042105;28;20055;-67
2022/09/29 03:09:53;;;;;;;;;;;6.00;99.90;;;;;;5044511;28;20045;-67
2022/09/29 03:12:19;;;;;;;5.85;4.00;;;6.00;99.90;;;;;;5046920;28;19916;-67
2022/09/29 03:14:45;;;;;;;4.20;3.38;;;6.00;99.90;;;;;;5054221;28;20048;-67
2022/09/29 03:17:11;;;;;;;7.95;4.13;;;6.10;99.90;;;;;;5043623;28;20069;-67
2022/09/29 03:19:36;;;;;;;6.55;4.00;;;6.10;99.90;;;;;;5044881;28;20614;-67
2022/09/29 03:22:02;;;;;;;7.10;4.00;;;6.10;99.90;;;;;;5046478;28;20500;-66
2022/09/29 03:24:29;;;;;;;7.82;4.20;;;6.10;99.90;;;;;;5043616;28;20037;-66
2022/09/29 03:26:55;;;;;;;7.40;4.13;;;6.10;99.90;;;;;;5046506;28;20454;-66
2022/09/29 03:29:20;;;;;;;4.47;3.25;;;6.20;99.90;;;;;;5043415;28;20078;-67
2022/09/29 03:31:46;;;;;;;5.65;3.13;;;6.20;99.90;;;;;;5044060;28;20120;-66
2022/09/29 03:34:12;;;;;;;;;;;6.10;99.90;;;;;;5043250;28;20091;-66
2022/09/29 03:36:37;;;;;;;4.72;3.22;;;6.10;99.90;;;;;;5044349;28;20007;-67
2022/09/29 03:39:03;;;;;;;5.40;3.80;;;6.10;99.90;;;;;;5041887;28;20107;-66
2022/09/29 03:41:29;;;;;;;;;;;6.10;99.90;;;;;;5048671;28;20079;-66
2022/09/29 03:43:54;;;;;;;6.45;4.15;;;6.20;99.90;;;;;;5046677;28;19917;-66
2022/09/29 03:46:20;;;;;;;;;;;6.10;99.90;;;;;;5043594;28;20088;-70
2022/09/29 03:48:46;;;;;;;8.85;4.15;;;6.10;99.90;;;;;;5044839;28;20342;-68
2022/09/29 03:51:12;;;;;;;7.43;3.97;;;6.10;99.90;;;;;;5042153;28;20036;-66
2022/09/29 03:53:37;;;;;;;;;;;6.10;99.90;;;;;;5044803;28;20044;-66
2022/09/29 03:56:04;;;;;;;7.07;4.90;;;6.10;99.90;;;;;;5047534;28;20296;-66
2022/09/29 03:58:29;;;;;;;9.95;4.63;;;6.10;99.90;;;;;;5044580;28;20041;-66
2022/09/29 04:00:55;;;;;;;10.00;5.85;;;6.10;99.90;;;;;;5047907;28;20048;-65
2022/09/29 04:03:21;;;;;;;7.30;5.35;;;6.00;99.90;;;;;;5046108;28;20033;-67
2022/09/29 04:05:47;;;;;;;;;;;6.00;99.90;;;;;;5049030;28;20044;-66
2022/09/29 04:08:13;;;;;;;10.80;5.45;;;6.00;99.90;;;;;;5047362;28;19928;-67
2022/09/29 04:10:39;;;;;;;8.18;5.63;;;5.90;99.90;;;;;;5047582;28;20037;-65
2022/09/29 04:13:06;;;;;;;6.93;5.68;;;5.90;99.90;;;;;;5058460;28;20501;-66
2022/09/29 04:15:32;;;;;;;7.90;4.60;;;5.90;99.90;;;;;;5044778;28;20537;-66
2022/09/29 04:17:57;;;;;;;17.65;4.03;;;5.90;99.90;;;;;;5047381;28;20068;-66
2022/09/29 04:20:23;;;;;;;;;;;5.80;99.90;;;;;;5045640;28;20804;-65
2022/09/29 04:22:49;;;;;;;8.82;4.05;;;5.80;99.90;;;;;;5049467;28;19916;-67
2022/09/29 04:25:16;;;;;;;;;;;5.80;99.90;;;;;;5042101;28;20115;-66
2022/09/29 04:27:41;;;;;;;6.70;4.70;;;5.80;99.90;;;;;;5047139;28;19920;-66
2022/09/29 04:30:08;;;;;;;6.78;4.65;;;5.80;99.90;;;;;;5045468;28;20040;-65
2022/09/29 04:32:34;;;;;;;7.60;4.90;;;5.60;99.90;;;;;;5031350;28;20084;-65
2022/09/29 04:34:59;;;;;;;7.72;4.82;;;5.60;99.90;;;;;;5043745;28;20068;-67
2022/09/29 04:37:25;;;;;;;6.45;3.85;;;5.60;99.90;;;;;;5046946;28;20037;-66
2022/09/29 04:39:53;;;;;;;7.82;4.40;;;5.60;99.90;;;;;;5046691;28;20056;-68
2022/09/29 04:42:19;;;;;;;6.63;4.28;;;5.60;99.90;;;;;;5046782;28;20048;-66
2022/09/29 04:44:45;;;;;;;7.78;4.38;;;5.60;99.90;;;;;;5045708;28;20133;-66
2022/09/29 04:47:11;;;;;;;7.40;4.55;;;5.60;99.90;;;;;;5046427;28;20037;-66
2022/09/29 04:49:37;;;;;;;7.78;4.28;;;5.60;99.90;;;;;;5046251;28;20093;-67
2022/09/29 04:52:03;;;;;;;11.77;5.28;;;5.60;99.90;;;;;;5046476;28;20044;-68
2022/09/29 04:54:29;;;;;;;;;;;5.60;99.90;;;;;;5044854;28;20452;-65
2022/09/29 04:56:54;;;;;;;4.22;3.05;;;5.60;99.90;;;;;;5045567;28;19921;-69
2022/09/29 04:59:20;;;;;;;7.28;4.45;;;5.60;99.90;;;;;;5045586;28;20568;-68
2022/09/29 05:01:47;;;;;;;;;;;5.50;99.90;;;;;;5045515;28;20060;-66
2022/09/29 05:04:12;;;;;;;10.68;4.72;;;5.50;99.90;;;;;;5045868;28;19965;-66
2022/09/29 05:06:38;;;;;;;;;;;5.50;99.90;;;;;;5046584;28;20578;-66
2022/09/29 05:09:07;;;;;;;6.53;4.25;;;5.40;99.90;;;;;;5043378;28;19917;-66
2022/09/29 05:11:33;;;;;;;7.20;4.93;;;5.40;99.90;;;;;;5045326;28;20094;-65
2022/09/29 05:13:59;;;;;;;9.25;4.60;;;5.40;99.90;;;;;;5043901;28;20036;-67
2022/09/29 05:16:25;;;;;;;11.50;4.90;;;5.40;99.90;;;;;;5046628;28;20043;-66
2022/09/29 05:18:51;;;;;;;;;;;5.40;99.90;;;;;;5044080;28;20132;-67
2022/09/29 05:21:16;;;;;;;11.80;6.30;;;5.40;99.90;;;;;;5045307;28;19951;-68
2022/09/29 05:23:42;;;;;;;14.70;6.32;;;5.40;99.90;;;;;;5045637;28;20025;-68
2022/09/29 05:26:10;;;;;;;12.32;5.90;;;5.50;99.90;;;;;;5045188;28;20461;-67
2022/09/29 05:28:38;;;;;;;8.00;5.75;;;5.50;99.90;;;;;;5044630;28;20045;-68
2022/09/29 05:31:08;;;;;;;10.65;5.88;;;5.50;99.90;;;;;;5044673;28;20040;-68
2022/09/29 05:33:34;;;;;;;8.07;5.45;;;5.50;99.90;;;;;;5045985;28;20049;-66
2022/09/29 05:36:04;;;;;;;7.85;5.75;;;5.50;99.90;;;;;;5044460;28;20159;-65
2022/09/29 05:38:30;;;;;;;12.10;6.25;;;5.50;99.90;;;;;;5045298;28;20071;-67
2022/09/29 05:40:55;;;;;;;11.43;6.10;;;5.50;99.90;;;;;;5045556;28;20138;-68
2022/09/29 05:43:21;;;;;;;8.57;5.95;;;5.50;99.90;;;;;;5045173;28;20110;-62
2022/09/29 05:45:47;;;;;;;7.85;5.63;;;5.60;99.90;;;;;;5045043;28;20774;-66
2022/09/29 05:48:13;;;;;;;11.30;6.47;;;5.60;99.90;;;;;;5045963;28;20533;-67
2022/09/29 05:50:42;;;;;;;13.55;6.35;;;5.70;99.90;;;;;;5044649;28;20112;-67
2022/09/29 05:53:08;;;;;;;8.43;5.47;;;5.60;99.90;;;;;;5043955;28;20041;-64
2022/09/29 05:55:37;;;;;;;8.07;4.82;;;5.60;99.90;;;;;;5044692;28;20037;-66
2022/09/29 05:58:04;;;;;;;14.00;5.60;;;5.60;99.90;;;;;;5044035;28;20124;-66
2022/09/29 06:00:30;;;;;;;9.73;5.90;;;5.60;99.90;;;;;;5041579;28;20037;-67
2022/09/29 06:02:59;;;;;;;14.98;6.60;;;5.60;99.90;;;;;;5041327;28;20037;-66
2022/09/29 06:05:25;;;;;;;8.68;5.88;;;5.60;99.90;;;;;;5044881;28;20055;-65
2022/09/29 06:07:51;;;;;;;9.18;5.90;;;5.70;99.90;;;;;;5045435;28;20124;-63
2022/09/29 06:10:17;;;;;;;9.18;6.32;;;5.70;99.90;;;;;;5045556;28;20099;-62
2022/09/29 06:12:43;;;;;;;8.93;5.82;;;5.80;99.90;;;;;;5044066;28;20291;-66
2022/09/29 06:15:09;;;;;;;10.35;6.35;;;5.80;99.90;;;;;;5043824;28;20128;-67
2022/09/29 06:17:35;;;;;;;9.55;6.05;;;5.90;99.90;;;;;;5042261;28;20480;-67
2022/09/29 06:20:02;;;;;;;8.35;6.10;;;5.90;99.90;;;;;;5043502;28;20044;-69
2022/09/29 06:22:27;;;;;;;10.65;6.53;;;6.00;99.90;;;;;;5043642;28;20393;-68
2022/09/29 06:24:54;;;;;;;9.57;6.20;;;6.00;99.90;;;;;;5043091;28;20036;-69
2022/09/29 06:27:19;;;;;;;8.30;5.97;;;6.20;99.90;;;;;;5044053;28;20135;-66
2022/09/29 06:29:45;;;;;;;;;;;6.40;99.90;;;;;;5043986;28;20124;-67
2022/09/29 06:32:10;;;;;;;9.60;6.47;;;6.50;99.90;;;;;;5069532;28;19955;-69
2022/09/29 06:37:33;;;;;;;12.10;7.13;;;6.60;99.90;;;;;;5072500;28;20044;-66
2022/09/29 06:37:34;;;;;;;12.27;6.68;;;6.60;99.90;;;;;;5069503;28;20051;-66
2022/09/29 06:40:00;;;;;;;11.00;6.45;;;6.70;99.90;;;;;;5072221;28;20032;-67
2022/09/29 06:42:26;;;;;;;11.23;7.05;;;6.70;99.90;;;;;;5068347;28;20040;-67
2022/09/29 06:44:53;;;;;;;;;;;6.70;99.90;;;;;;5064150;28;20048;-67
2022/09/29 06:47:19;;;;;;;;;;;6.70;99.90;;;;;;5072394;28;19930;-67
2022/09/29 06:49:45;;;;;;;15.07;6.63;;;6.70;99.90;;;;;;5064176;28;20031;-67
2022/09/29 06:52:10;;;;;;;;;;;6.80;99.90;;;;;;5076290;28;20036;-66
2022/09/29 06:54:36;;;;;;;11.05;5.72;;;6.80;99.90;;;;;;5070325;28;19963;-67
2022/09/29 06:57:01;;;;;;;;;;;6.90;99.90;;;;;;5078201;28;20464;-66
2022/09/29 06:59:27;;;;;;;9.70;6.28;;;6.90;99.90;;;;;;5066612;28;20000;-66
2022/09/29 07:01:52;;;;;;;20.70;9.23;;;7.00;99.90;;;;;;5065130;28;20036;-67
2022/09/29 07:04:18;;;;;;;;;;;7.10;99.90;;;;;;5069746;28;20029;-67
2022/09/29 07:06:44;;;;;;;10.02;6.95;;;7.20;99.90;;;;;;5075823;28;19924;-69
2022/09/29 07:09:14;;;;;;;;;;;7.20;99.90;;;;;;5069532;28;20043;-69
2022/09/29 07:11:45;;;;;;;15.18;7.63;;;7.30;99.90;;;;;;5068920;28;19973;-69
2022/09/29 07:14:15;;;;;;;14.73;8.57;;;7.30;99.90;;;;;;5062243;28;20047;-67
2022/09/29 07:16:42;;;;;;;15.40;9.13;;;7.30;99.90;;;;;;5073713;28;20054;-67
2022/09/29 07:19:07;;;;;;;13.95;9.00;;;7.30;99.90;;;;;;5066082;28;20131;-67
2022/09/29 07:21:33;;;;;;;;;;;7.30;99.90;;;;;;5062790;28;20148;-68
2022/09/29 07:23:59;;;;;;;14.68;9.15;;;7.40;99.90;;;;;;5090734;28;19920;-66
2022/09/29 07:26:24;;;;;;;14.02;8.45;;;7.40;99.90;;;;;;5073815;28;20559;-66
2022/09/29 07:28:50;;;;;;;;;;;7.50;99.90;;;;;;5075668;28;20056;-66
2022/09/29 07:31:18;;;;;;;15.00;9.23;;;7.50;99.90;;;;;;5072423;28;20441;-67
2022/09/29 07:33:45;;;;;;;14.63;8.75;;;7.60;99.90;;;;;;5070279;28;20047;-67
2022/09/29 07:36:13;;;;;;;17.55;8.90;;;7.60;99.90;;;;;;5076723;28;20055;-71
2022/09/29 07:38:38;;;;;;;14.75;8.23;;;7.70;99.90;;;;;;5079143;28;20040;-67
2022/09/29 07:41:10;;;;;;;;;;;7.70;99.90;;;;;;5074290;28;20037;-68
2022/09/29 07:43:37;;;;;;;12.18;7.45;;;7.70;99.90;;;;;;5063103;28;19922;-69
2022/09/29 07:46:03;;;;;;;12.00;7.75;;;7.80;99.90;;;;;;5075854;28;20043;-68
2022/09/29 07:48:30;;;;;;;14.15;7.88;;;7.90;99.90;;;;;;5072616;28;20044;-66
2022/09/29 07:51:14;;;;;;;11.70;6.57;;;8.10;99.90;;;;;;5075041;28;20044;-70
2022/09/29 07:53:41;;;;;;;16.83;7.35;;;8.20;99.90;;;;;;5076728;28;20766;-66
2022/09/29 07:56:17;;;;;;;14.27;8.15;;;8.30;99.90;;;;;;5105725;27;20036;-66
2022/09/29 07:58:44;;;;;;;12.20;7.22;;;8.40;99.90;;;;;;5074525;28;20039;-66
2022/09/29 08:01:12;;;;;;;11.07;7.15;;;8.40;99.90;;;;;;5072585;28;20097;-66
2022/09/29 08:03:39;;;;;;;10.55;6.93;;;8.50;99.90;;;;;;5071280;28;20037;-65
2022/09/29 08:06:06;;;;;;;12.23;7.03;;;8.70;99.90;;;;;;5074191;28;20493;-66
2022/09/29 08:08:40;;;;;;;10.45;6.50;;;9.00;99.90;;;;;;5069688;28;20044;-68
2022/09/29 08:11:08;;;;;;;7.00;5.00;;;9.30;99.90;;;;;;5066950;28;20044;-66
2022/09/29 08:13:35;;;;;;;7.10;4.32;;;9.60;99.90;;;;;;5071067;28;20040;-66
2022/09/29 08:16:03;;;;;;;6.65;4.57;;;9.90;99.90;;;;;;5073341;28;20603;-66
2022/09/29 08:18:30;;;;;;;8.32;4.68;;;9.80;99.90;;;;;;5074039;28;20036;-66
2022/09/29 08:20:56;;;;;;;6.70;4.32;;;9.60;99.90;;;;;;5072940;28;20820;-67
2022/09/29 08:23:22;;;;;;;5.75;3.85;;;9.60;99.90;;;;;;5074745;28;20621;-67
2022/09/29 08:25:48;;;;;;;;;;;9.60;99.90;;;;;;5071006;28;20048;-66
2022/09/29 08:28:14;;;;;;;14.75;4.97;;;9.60;99.90;;;;;;5074047;28;19916;-66
2022/09/29 08:30:40;;;;;;;;;;;9.70;99.90;;;;;;5066905;28;20043;-66
2022/09/29 08:33:11;;;;;;;7.10;4.45;;;9.60;99.90;;;;;;5067107;28;20332;-66
2022/09/29 08:35:37;;;;;;;6.82;4.13;;;9.60;99.90;;;;;;5066128;28;20041;-67
2022/09/29 08:38:02;;;;;;;;;;;9.70;99.90;;;;;;5066200;28;20106;-66
2022/09/29 08:40:30;;;;;;;5.75;3.85;;;9.60;99.90;;;;;;5066864;28;19960;-69
2022/09/29 08:43:14;;;;;;;5.75;3.53;;;9.70;99.90;;;;;;5066130;28;20098;-67
2022/09/29 08:46:00;;;;;;;9.35;3.70;;;9.80;99.90;;;;;;5064969;28;20051;-67
2022/09/29 08:48:30;;;;;;;5.18;3.33;;;9.90;99.90;;;;;;5052005;28;20566;-67
2022/09/29 08:51:11;;;;;;;5.13;2.28;;;10.00;99.90;;;;;;5066080;28;20731;-69
2022/09/29 08:53:44;;;;;;;3.97;1.83;;;10.10;99.90;;;;;;5072798;28;20039;-67
2022/09/29 08:56:15;;;;;;;5.13;2.10;;;10.20;99.90;;;;;;5073383;28;20048;-66
2022/09/29 08:58:41;;;;;;;2.38;1.35;;;10.10;99.90;;;;;;5071176;28;20078;-65
2022/09/29 09:01:22;;;;;;;3.13;1.20;;;10.30;99.90;;;;;;5068727;28;20042;-65
2022/09/29 09:04:35;;;;;;;3.13;1.17;;;10.40;99.90;;;;;;5082644;28;20036;-65
2022/09/29 09:07:17;;;;;;;3.97;1.48;;;10.60;99.90;;;;;;4977902;28;20726;-65
2022/09/29 09:10:09;;;;;;;4.13;1.20;;;10.80;99.90;;;;;;5061082;28;20080;-66
2022/09/29 09:12:58;;;;;;;1.73;1.15;;;11.00;99.90;;;;;;5065644;28;20097;-65
2022/09/29 09:15:32;;;;;;;2.70;1.52;;;11.10;99.90;;;;;;5065462;28;20090;-67
2022/09/29 09:18:33;;;;;;;4.07;1.23;;;11.30;99.90;;;;;;5064126;28;20119;-67
2022/09/29 09:21:14;;;;;;;5.70;1.30;;;11.40;99.90;;;;;;5047340;28;20044;-67
2022/09/29 09:24:20;;;;;;;7.20;1.52;;;11.50;99.90;;;;;;5065301;28;20048;-67
2022/09/29 09:26:46;;;;;;;2.92;1.27;;;11.60;99.90;;;;;;5063834;28;20082;-68
2022/09/29 09:29:38;;;;;;;4.13;1.50;;;11.60;99.90;;;;;;5065846;28;20815;-66
2022/09/29 09:32:09;;;;;;;2.90;1.58;;;11.30;99.90;;;;;;5063760;28;20052;-63
2022/09/29 09:34:45;;;;;;;5.88;1.77;;;11.10;99.90;;;;;;5065313;28;20037;-66
2022/09/29 09:37:24;;;;;;;3.05;1.45;;;10.90;99.90;;;;;;5066572;28;20140;-66
2022/09/29 09:40:05;;;;;;;4.63;1.38;;;10.80;99.90;;;;;;5064568;28;20124;-65
2022/09/29 09:42:36;;;;;;;3.15;1.33;;;10.90;99.90;;;;;;5065071;28;20040;-68
2022/09/29 09:45:10;;;;;;;2.75;1.38;;;11.20;99.90;;;;;;5063146;28;20044;-68
2022/09/29 09:47:41;;;;;;;5.00;2.10;;;11.50;99.90;;;;;;5074081;28;20114;-66
2022/09/29 09:50:18;;;;;;;9.98;1.95;;;11.70;99.90;;;;;;5067071;28;20043;-67
2022/09/29 09:52:57;;;;;;;4.38;1.63;;;11.80;99.90;;;;;;5063979;28;20036;-66
2022/09/29 09:55:27;;;;;;;5.15;2.00;;;12.10;99.90;;;;;;5059454;28;20564;-67
2022/09/29 09:58:14;;;;;;;7.22;1.35;;;12.00;99.90;;;;;;5063925;28;20045;-67
2022/09/29 10:00:46;;;;;;;6.32;1.60;;;12.10;99.90;;;;;;5061773;28;20075;-68
2022/09/29 10:03:16;;;;;;;2.28;1.48;;;12.20;99.90;;;;;;5064801;28;20032;-67
2022/09/29 10:05:44;;;;;;;3.13;1.50;;;12.20;99.90;;;;;;5064055;28;20397;-66
2022/09/29 10:08:29;;;;;;;3.15;1.50;;;12.10;99.90;;;;;;5065378;28;20044;-67
2022/09/29 10:10:57;;;;;;;3.30;1.52;;;12.20;99.90;;;;;;5065190;28;20124;-66
2022/09/29 10:13:29;;;;;;;6.07;1.70;;;12.20;99.90;;;;;;5064134;28;20123;-67
2022/09/29 10:16:00;;;;;;;3.97;1.35;;;12.30;99.90;;;;;;5064544;28;20056;-66
2022/09/29 10:18:40;;;;;;;2.70;1.42;;;12.20;99.90;;;;;;5065155;28;20115;-66
2022/09/29 10:21:22;;;;;;;2.78;1.65;;;12.00;99.90;;;;;;5066034;28;20036;-71
2022/09/29 10:23:53;;;;;;;6.07;1.90;;;11.80;99.90;;;;;;5064420;28;20649;-68
2022/09/29 10:26:25;;;;;;;10.27;1.98;;;11.60;99.90;;;;;;5059202;28;20048;-68
2022/09/29 10:29:19;;;;;;;6.32;1.75;;;11.50;99.90;;;;;;5070443;28;20472;-68
2022/09/29 10:32:06;;;;;;;7.53;1.67;;;11.30;99.90;;;;;;5064375;28;20047;-70
2022/09/29 10:34:36;;;;;;;8.25;1.58;;;11.20;99.90;;;;;;5062754;28;20037;-67
2022/09/29 10:37:25;;;;;;;5.20;1.33;;;11.30;99.90;;;;;;5062845;28;20052;-69
2022/09/29 10:40:03;;;;;;;4.05;1.50;;;11.40;99.90;;;;;;5064503;28;20048;-67
2022/09/29 10:42:37;;;;;;;5.20;1.17;;;11.30;99.90;;;;;;5065024;28;20141;-67
2022/09/29 10:45:16;;;;;;;1.38;1.05;;;11.20;99.90;;;;;;5062348;28;20446;-67
2022/09/29 10:47:45;;;;;;;4.30;1.80;;;11.20;99.90;;;;;;5064033;28;20052;-69
2022/09/29 10:50:20;;;;;;;1.80;1.10;;;11.20;99.90;;;;;;5063295;28;20036;-68
2022/09/29 10:52:55;;;;;;;3.55;1.25;;;11.10;99.90;;;;;;5064671;28;20049;-67
2022/09/29 10:55:23;;;;;;;3.70;1.40;;;11.10;99.90;;;;;;5075390;28;20056;-68
2022/09/29 10:57:50;;;;;;;3.72;1.27;;;11.00;99.90;;;;;;5064863;28;20048;-68
2022/09/29 11:00:30;;;;;;;3.97;1.08;;;11.00;99.90;;;;;;5059994;28;20127;-67
2022/09/29 11:03:15;;;;;;;3.60;1.27;;;11.10;99.90;;;;;;5059847;28;20041;-68
2022/09/29 11:05:52;;;;;;;2.22;0.90;;;11.10;99.90;;;;;;5061020;28;20447;-67
2022/09/29 11:08:24;;;;;;;2.60;0.88;;;11.10;99.90;;;;;;5056574;28;20055;-69
2022/09/29 11:11:05;;;;;;;1.70;1.15;;;11.10;99.90;;;;;;5062977;28;20104;-66
2022/09/29 11:13:40;;;;;;;2.05;0.90;;;11.10;99.90;;;;;;5063288;28;20036;-69
2022/09/29 11:16:28;;;;;;;3.22;1.05;;;11.10;99.90;;;;;;5062607;28;20048;-67
2022/09/29 11:18:57;;;;;;;3.25;1.50;;;11.10;99.90;;;;;;5063734;28;20477;-66
2022/09/29 11:21:38;;;;;;;2.00;1.10;;;11.00;99.90;;;;;;5064320;28;20792;-67
2022/09/29 11:24:10;;;;;;;2.38;1.05;;;11.00;99.90;;;;;;5063424;28;20048;-68
2022/09/29 11:27:01;;;;;;;1.70;1.10;;;11.00;99.90;;;;;;5064267;28;20045;-68
2022/09/29 11:30:06;;;;;;;3.80;1.10;;;11.00;99.90;;;;;;5059823;28;20040;-70
2022/09/29 11:32:53;;;;;;;2.47;1.33;;;11.10;99.90;;;;;;5059484;28;20499;-69
2022/09/29 11:35:45;;;;;;;4.50;1.23;;;11.10;99.90;;;;;;5060262;28;20114;-70
2022/09/29 11:38:31;;;;;;;2.88;1.45;;;11.10;99.90;;;;;;5063281;28;20115;-68
2022/09/29 11:41:03;;;;;;;3.72;1.35;;;11.10;99.90;;;;;;5063156;28;20125;-66
2022/09/29 11:43:43;;;;;;;5.55;1.70;;;11.10;99.90;;;;;;5060960;28;20048;-67
2022/09/29 11:46:56;;;;;;;3.30;1.63;;;11.10;99.90;;;;;;5061851;28;20048;-67
2022/09/29 11:49:30;;;;;;;3.50;1.42;;;11.10;99.90;;;;;;5056185;28;20041;-68
2022/09/29 11:52:23;;;;;;;3.75;1.25;;;11.20;99.90;;;;;;5060382;28;20040;-67
2022/09/29 11:55:11;;;;;;;3.85;1.38;;;11.20;99.90;;;;;;5061174;28;20051;-67
2022/09/29 11:58:05;;;;;;;5.00;1.63;;;11.20;99.90;;;;;;5063058;28;20039;-69
2022/09/29 12:00:46;;;;;;;4.15;1.02;;;11.20;99.90;;;;;;5060127;28;20043;-68
2022/09/29 12:03:52;;;;;;;3.47;1.35;;;11.20;99.90;;;;;;5062927;28;20098;-67
2022/09/29 12:06:36;;;;;;;4.97;1.23;;;11.20;99.90;;;;;;5027048;28;20048;-67
2022/09/29 12:09:13;;;;;;;4.70;1.50;;;11.20;99.90;;;;;;5062937;28;20071;-67
2022/09/29 12:11:50;;;;;;;4.15;1.17;;;11.20;99.90;;;;;;5062073;28;20680;-66
2022/09/29 12:14:39;;;;;;;2.20;1.40;;;11.10;99.90;;;;;;5053366;28;20510;-67
2022/09/29 12:17:14;;;;;;;3.22;1.30;;;11.10;99.90;;;;;;5048423;28;20048;-66
2022/09/29 12:19:42;;;;;;;4.82;1.38;;;11.20;99.90;;;;;;5070780;28;20048;-68
2022/09/29 12:22:10;;;;;;;3.35;0.95;;;11.20;99.90;;;;;;5077804;28;20048;-67
2022/09/29 12:24:40;;;;;;;1.58;1.17;;;11.20;99.90;;;;;;5069828;28;20579;-67
2022/09/29 12:27:19;;;;;;;4.20;1.30;;;11.20;99.90;;;;;;5062890;28;20044;-66
2022/09/29 12:30:22;;;;;;;3.25;1.02;;;11.20;99.90;;;;;;5066563;28;20036;-66
2022/09/29 12:33:16;;;;;;;2.58;1.02;;;11.30;99.90;;;;;;5068315;28;20120;-68
2022/09/29 12:35:46;;;;;;;4.70;1.00;;;11.30;99.90;;;;;;5072165;28;20048;-67
2022/09/29 12:38:15;;;;;;;3.80;1.35;;;11.40;99.90;;;;;;5070893;28;20040;-68
2022/09/29 12:40:52;;;;;;;4.07;1.02;;;11.40;99.90;;;;;;5071373;28;20043;-69
2022/09/29 12:43:41;;;;;;;3.08;1.10;;;11.40;99.90;;;;;;5065206;28;20036;-70
2022/09/29 12:46:24;;;;;;;2.50;1.02;;;11.50;99.90;;;;;;5070356;28;20451;-68
2022/09/29 12:49:31;;;;;;;2.47;1.13;;;11.50;99.90;;;;;;5075214;28;20079;-67
2022/09/29 12:51:57;;;;;;;2.55;1.05;;;11.60;99.90;;;;;;5068411;28;20127;-66
2022/09/29 12:54:38;;;;;;;2.53;0.90;;;11.70;99.90;;;;;;5065255;28;20072;-68
2022/09/29 12:57:07;;;;;;;3.83;1.25;;;11.80;99.90;;;;;;5064887;28;20044;-67
2022/09/29 13:00:00;;;;;;;5.25;1.50;;;12.00;99.90;;;;;;5065681;28;20084;-67
2022/09/29 13:03:01;;;;;;;2.67;1.30;;;12.20;99.90;;;;;;5063821;28;20036;-67
2022/09/29 13:05:38;;;;;;;3.95;1.15;;;12.30;99.90;;;;;;5063417;28;20047;-68
2022/09/29 13:08:15;;;;;;;5.45;2.10;;;12.20;99.20;;;;;;5064752;28;20048;-67
2022/09/29 13:10:47;;;;;;;6.40;1.20;;;12.00;99.40;;;;;;5064873;28;20037;-68
2022/09/29 13:13:41;;;;;;;1.13;1.00;;;11.90;99.20;;;;;;5065189;28;20554;-68
2022/09/29 13:16:27;;;;;;;4.75;1.02;;;11.80;99.60;;;;;;5066293;28;20040;-68
2022/09/29 13:19:12;;;;;;;2.30;1.17;;;12.00;99.90;;;;;;5063946;28;20070;-67
2022/09/29 13:21:47;;;;;;;5.13;1.33;;;12.30;99.90;;;;;;5068203;28;20040;-67
2022/09/29 13:24:25;;;;;;;4.50;1.20;;;12.20;98.20;;;;;;5066342;28;20124;-68
2022/09/29 13:27:29;;;;;;;2.85;1.23;;;12.30;99.00;;;;;;5078686;28;20047;-67
2022/09/29 13:30:14;;;;;;;8.32;1.30;;;12.20;98.40;;;;;;5063363;28;20036;-68